Time;durP1;ratioP1;P1;durP2;ratioP2;P2;SDS_P1;SDS_P2;PMS_P1;PMS_P2;Temp;Humidity;BMP_temperature;BMP_pressure;BME280_temperature;BME280_humidity;BME280_pressure;Samples;Min_cycle;Max_cycle;Signal;HPM_P1;HPM_P2
2024/01/21 00:00:51;;;;;;;7.90;4.10;;;0.00;99.90;;;;;;5041211;28;20235;-75
2024/01/21 00:03:18;;;;;;;7.23;4.13;;;0.00;99.90;;;;;;5042069;28;20224;-75
2024/01/21 00:05:46;;;;;;;6.33;4.03;;;0.00;99.90;;;;;;5042604;28;21599;-75
2024/01/21 00:08:13;;;;;;;5.93;3.90;;;0.00;99.90;;;;;;5042088;28;20259;-75
2024/01/21 00:10:40;;;;;;;6.13;2.93;;;0.00;99.90;;;;;;5041701;28;20238;-75
2024/01/21 00:13:07;;;;;;;5.93;3.30;;;0.00;99.90;;;;;;5039568;28;20294;-75
2024/01/21 00:15:34;;;;;;;4.53;3.27;;;0.00;99.90;;;;;;5040240;28;20313;-75
2024/01/21 00:18:01;;;;;;;7.00;3.17;;;0.00;99.90;;;;;;5045293;28;20438;-75
2024/01/21 00:20:30;;;;;;;3.87;3.13;;;0.00;99.90;;;;;;5039771;28;20312;-75
2024/01/21 00:22:58;;;;;;;7.10;3.50;;;0.00;99.90;;;;;;5047467;28;20255;-75
2024/01/21 00:25:25;;;;;;;3.90;3.03;;;0.00;99.90;;;;;;5044526;28;20259;-75
2024/01/21 00:27:52;;;;;;;5.20;3.20;;;0.10;99.90;;;;;;5046749;28;20228;-75
2024/01/21 00:30:18;;;;;;;4.50;2.80;;;0.10;99.90;;;;;;5043545;28;20236;-75
2024/01/21 00:32:45;;;;;;;4.53;2.87;;;0.10;99.90;;;;;;5046371;28;20227;-75
2024/01/21 00:35:12;;;;;;;3.53;2.50;;;0.10;99.90;;;;;;5045611;28;20236;-75
2024/01/21 00:37:39;;;;;;;4.57;2.90;;;0.10;99.90;;;;;;5047654;28;20309;-75
2024/01/21 00:40:09;;;;;;;5.53;3.30;;;0.10;99.90;;;;;;5024971;28;20682;-75
2024/01/21 00:42:36;;;;;;;5.27;2.90;;;0.00;99.90;;;;;;5045825;28;20235;-75
2024/01/21 00:45:03;;;;;;;4.63;2.90;;;0.00;99.90;;;;;;5042478;28;20243;-75
2024/01/21 00:47:30;;;;;;;3.70;2.50;;;0.00;99.90;;;;;;5044935;28;20232;-75
2024/01/21 00:49:57;;;;;;;5.60;2.87;;;0.00;99.90;;;;;;5045101;28;20300;-75
2024/01/21 00:52:24;;;;;;;4.17;2.47;;;-0.10;99.90;;;;;;5046375;28;20282;-75
2024/01/21 00:54:52;;;;;;;2.93;2.30;;;-0.10;99.90;;;;;;5044768;28;20738;-75
2024/01/21 00:57:21;;;;;;;4.17;3.00;;;-0.10;99.90;;;;;;5045386;28;20239;-75
2024/01/21 00:59:48;;;;;;;3.20;2.60;;;-0.20;99.90;;;;;;5047777;28;20279;-75
2024/01/21 01:02:16;;;;;;;4.27;2.60;;;-0.20;99.90;;;;;;5046923;28;20231;-74
2024/01/21 01:04:43;;;;;;;5.13;2.50;;;-0.30;99.90;;;;;;5050736;28;20264;-75
2024/01/21 01:07:10;;;;;;;3.37;2.17;;;-0.30;99.90;;;;;;5049231;28;20320;-75
2024/01/21 01:09:37;;;;;;;4.13;2.80;;;-0.40;99.90;;;;;;5045606;28;20713;-75
2024/01/21 01:12:04;;;;;;;3.20;2.50;;;-0.40;99.90;;;;;;5047051;28;20230;-75
2024/01/21 01:14:32;;;;;;;3.87;2.53;;;-0.50;99.90;;;;;;5043874;28;20242;-75
2024/01/21 01:16:59;;;;;;;3.17;2.50;;;-0.50;99.90;;;;;;5044231;28;20228;-74
2024/01/21 01:19:26;;;;;;;4.33;2.63;;;-0.50;99.90;;;;;;5039892;28;20259;-74
2024/01/21 01:21:53;;;;;;;4.77;2.90;;;-0.50;99.90;;;;;;5042514;28;20803;-74
2024/01/21 01:24:21;;;;;;;3.37;2.30;;;-0.60;99.90;;;;;;5044610;28;20260;-74
2024/01/21 01:26:48;;;;;;;5.10;2.60;;;-0.60;99.90;;;;;;5044202;28;20228;-75
2024/01/21 01:29:15;;;;;;;3.87;2.33;;;-0.70;99.90;;;;;;5044038;28;20228;-75
2024/01/21 01:31:43;;;;;;;3.33;2.30;;;-0.70;99.90;;;;;;5040121;28;20323;-75
2024/01/21 01:34:12;;;;;;;4.43;2.50;;;-0.70;99.90;;;;;;5037867;28;20257;-75
2024/01/21 01:36:39;;;;;;;3.40;2.47;;;-0.80;99.90;;;;;;5045343;28;20289;-75
2024/01/21 01:39:07;;;;;;;4.33;2.90;;;-0.80;99.90;;;;;;5043895;28;20212;-75
2024/01/21 01:41:34;;;;;;;3.73;2.73;;;-0.80;99.90;;;;;;5055055;28;20790;-75
2024/01/21 01:44:02;;;;;;;3.33;2.53;;;-0.90;99.90;;;;;;5037184;28;20281;-75
2024/01/21 01:46:29;;;;;;;3.50;2.47;;;-0.90;99.90;;;;;;5039183;28;20281;-75
2024/01/21 01:48:58;;;;;;;5.83;2.73;;;-1.00;99.90;;;;;;5037885;28;20318;-74
2024/01/21 01:51:25;;;;;;;4.33;2.70;;;-1.00;99.90;;;;;;5044974;28;20325;-75
2024/01/21 01:53:52;;;;;;;4.03;2.80;;;-1.00;99.90;;;;;;5042610;28;20832;-75
2024/01/21 01:56:19;;;;;;;6.00;3.00;;;-1.10;99.90;;;;;;5042699;28;20286;-76
2024/01/21 01:58:47;;;;;;;4.30;2.70;;;-1.10;99.90;;;;;;5041532;28;20316;-75
2024/01/21 02:01:14;;;;;;;3.83;2.77;;;-1.10;99.90;;;;;;5041197;28;20208;-75
2024/01/21 02:03:42;;;;;;;3.80;2.53;;;-1.10;99.90;;;;;;5044973;28;20224;-76
2024/01/21 02:06:10;;;;;;;5.50;2.83;;;-1.10;99.90;;;;;;5044631;28;20305;-76
2024/01/21 02:08:37;;;;;;;4.90;2.47;;;-1.20;99.90;;;;;;5039482;28;20299;-76
2024/01/21 02:11:04;;;;;;;5.40;3.07;;;-1.20;99.90;;;;;;5043172;28;20741;-75
2024/01/21 02:13:31;;;;;;;4.47;2.87;;;-1.10;99.90;;;;;;5044700;28;20239;-75
2024/01/21 02:15:59;;;;;;;3.77;2.77;;;-1.10;99.90;;;;;;5046715;28;20985;-75
2024/01/21 02:18:25;;;;;;;4.27;2.80;;;-1.10;99.90;;;;;;5044095;28;20307;-75
2024/01/21 02:20:52;;;;;;;4.93;3.00;;;-1.10;99.90;;;;;;5041293;28;20230;-75
2024/01/21 02:23:20;;;;;;;4.10;2.83;;;-1.10;99.90;;;;;;5042582;28;20220;-75
2024/01/21 02:25:47;;;;;;;3.43;2.80;;;-1.10;99.90;;;;;;5037560;28;20219;-75
2024/01/21 02:28:14;;;;;;;2.73;2.03;;;-1.10;99.90;;;;;;5045137;28;20232;-75
2024/01/21 02:30:42;;;;;;;6.50;2.80;;;-1.10;99.90;;;;;;5044322;28;20237;-74
2024/01/21 02:33:08;;;;;;;4.27;2.70;;;-1.00;99.90;;;;;;5045055;28;20635;-75
2024/01/21 02:35:36;;;;;;;3.73;2.57;;;-1.00;99.90;;;;;;5045541;28;20302;-75
2024/01/21 02:38:03;;;;;;;4.90;2.90;;;-1.00;99.90;;;;;;5045120;28;20305;-75
2024/01/21 02:40:31;;;;;;;4.33;2.70;;;-1.00;99.90;;;;;;5044065;28;20646;-75
2024/01/21 02:42:58;;;;;;;4.13;2.80;;;-1.00;99.90;;;;;;5038097;28;20240;-75
2024/01/21 02:45:25;;;;;;;5.57;3.13;;;-1.10;99.90;;;;;;5044990;28;20235;-75
2024/01/21 02:47:52;;;;;;;5.27;2.80;;;-1.10;99.90;;;;;;5044055;28;20228;-74
2024/01/21 02:50:19;;;;;;;4.70;2.80;;;-1.10;99.90;;;;;;5043285;28;20250;-74
2024/01/21 02:52:46;;;;;;;4.73;3.03;;;-1.10;99.90;;;;;;5044981;28;20261;-75
2024/01/21 02:55:13;;;;;;;6.17;2.90;;;-1.10;99.90;;;;;;5045910;28;20629;-74
2024/01/21 02:57:42;;;;;;;4.83;2.67;;;-1.10;99.90;;;;;;5037108;28;20618;-75
2024/01/21 03:00:10;;;;;;;3.33;2.40;;;-1.10;99.90;;;;;;5034713;28;20222;-75
2024/01/21 03:02:37;;;;;;;3.67;2.67;;;-1.20;99.90;;;;;;5045143;28;20232;-74
2024/01/21 03:05:04;;;;;;;5.00;2.97;;;-1.20;99.90;;;;;;5045073;28;20224;-74
2024/01/21 03:07:32;;;;;;;4.40;3.10;;;-1.20;99.90;;;;;;5044519;28;20255;-74
2024/01/21 03:09:59;;;;;;;4.13;3.00;;;-1.30;99.90;;;;;;5036692;28;20231;-74
2024/01/21 03:12:26;;;;;;;6.57;3.23;;;-1.30;99.90;;;;;;5042810;28;20277;-75
2024/01/21 03:14:55;;;;;;;5.63;3.23;;;-1.30;99.90;;;;;;5042770;28;20658;-75
2024/01/21 03:17:22;;;;;;;4.93;2.87;;;-1.40;99.90;;;;;;5044131;28;20853;-75
2024/01/21 03:19:49;;;;;;;6.30;3.10;;;-1.40;99.90;;;;;;5044767;28;20234;-75
2024/01/21 03:22:17;;;;;;;5.33;3.20;;;-1.40;99.90;;;;;;5044367;28;20721;-75
2024/01/21 03:24:44;;;;;;;5.50;3.43;;;-1.50;99.90;;;;;;5036414;28;20358;-75
2024/01/21 03:27:11;;;;;;;4.80;3.30;;;-1.50;99.90;;;;;;5028729;28;20342;-75
2024/01/21 03:29:38;;;;;;;4.80;3.27;;;-1.50;99.90;;;;;;5030490;28;20221;-75
2024/01/21 03:32:07;;;;;;;8.53;3.30;;;-1.50;99.90;;;;;;5039894;28;20230;-74
2024/01/21 03:34:37;;;;;;;6.03;3.53;;;-1.60;99.90;;;;;;5036611;28;20246;-74
2024/01/21 03:37:04;;;;;;;5.10;3.40;;;-1.60;99.90;;;;;;5044408;28;20712;-75
2024/01/21 03:39:31;;;;;;;3.63;2.77;;;-1.60;99.90;;;;;;5044053;28;20698;-75
2024/01/21 03:41:58;;;;;;;6.87;3.43;;;-1.60;99.90;;;;;;5044386;28;20232;-75
2024/01/21 03:44:25;;;;;;;6.27;3.80;;;-1.60;99.90;;;;;;5041699;28;20247;-75
2024/01/21 03:46:52;;;;;;;6.40;3.67;;;-1.60;99.90;;;;;;5042845;28;20247;-75
2024/01/21 03:49:21;;;;;;;7.30;3.83;;;-1.60;99.90;;;;;;5043595;28;20293;-75
2024/01/21 03:51:48;;;;;;;6.70;3.73;;;-1.60;99.90;;;;;;5045959;28;20725;-75
2024/01/21 03:54:15;;;;;;;5.80;3.30;;;-1.60;99.90;;;;;;5043586;28;20254;-75
2024/01/21 03:56:42;;;;;;;6.60;3.87;;;-1.60;99.90;;;;;;5045635;28;20627;-75
2024/01/21 03:59:09;;;;;;;7.00;3.73;;;-1.70;99.90;;;;;;5046877;28;20665;-76
2024/01/21 04:01:42;;;;;;;6.57;3.47;;;-1.70;99.90;;;;;;5044868;28;20268;-76
2024/01/21 04:04:09;;;;;;;5.33;3.73;;;-1.70;99.90;;;;;;5044793;28;20324;-76
2024/01/21 04:06:41;;;;;;;6.43;3.80;;;-1.70;99.90;;;;;;5040369;28;20258;-76
2024/01/21 04:09:08;;;;;;;6.73;3.97;;;-1.70;99.90;;;;;;5045464;28;20254;-76
2024/01/21 04:11:35;;;;;;;5.43;3.87;;;-1.80;99.90;;;;;;5047368;28;20551;-76
2024/01/21 04:14:02;;;;;;;6.77;3.60;;;-1.80;99.90;;;;;;5047435;28;20507;-76
2024/01/21 04:16:29;;;;;;;5.83;3.80;;;-1.80;99.90;;;;;;5046975;28;20279;-76
2024/01/21 04:18:56;;;;;;;5.60;3.97;;;-1.80;99.90;;;;;;5047154;28;20234;-76
2024/01/21 04:21:23;;;;;;;6.13;3.77;;;-1.80;99.90;;;;;;5046857;28;20211;-75
2024/01/21 04:23:52;;;;;;;6.57;4.20;;;-1.80;99.90;;;;;;5039946;28;20229;-75
2024/01/21 04:26:19;;;;;;;6.90;4.03;;;-1.80;99.90;;;;;;5035557;28;20554;-76
2024/01/21 04:28:46;;;;;;;8.13;4.23;;;-1.80;99.90;;;;;;5047196;28;20686;-75
2024/01/21 04:31:13;;;;;;;6.20;3.80;;;-1.80;99.90;;;;;;5046934;28;20245;-76
2024/01/21 04:33:40;;;;;;;7.43;4.30;;;-1.80;99.90;;;;;;5046893;28;20263;-74
2024/01/21 04:36:08;;;;;;;6.93;3.70;;;-1.80;99.90;;;;;;5044670;28;20775;-75
2024/01/21 04:38:35;;;;;;;5.63;3.97;;;-1.80;99.90;;;;;;5046314;28;20237;-75
2024/01/21 04:41:04;;;;;;;6.10;3.70;;;-1.70;99.90;;;;;;5040105;28;20310;-75
2024/01/21 04:43:33;;;;;;;5.47;3.40;;;-1.70;99.90;;;;;;5046509;28;20219;-76
2024/01/21 04:46:01;;;;;;;6.03;3.70;;;-1.70;99.90;;;;;;5043550;28;20219;-75
2024/01/21 04:48:28;;;;;;;5.40;3.50;;;-1.70;99.90;;;;;;5044622;28;20570;-75
2024/01/21 04:50:55;;;;;;;5.50;3.60;;;-1.70;99.90;;;;;;5046224;28;20244;-75
2024/01/21 04:53:22;;;;;;;5.90;3.60;;;-1.70;99.90;;;;;;5039307;28;20223;-75
2024/01/21 04:55:49;;;;;;;5.07;3.53;;;-1.60;99.90;;;;;;5034201;28;20248;-74
2024/01/21 04:58:17;;;;;;;5.13;3.10;;;-1.60;99.90;;;;;;5040068;28;20697;-74
2024/01/21 05:00:44;;;;;;;5.43;3.23;;;-1.50;99.90;;;;;;5044094;28;20218;-76
2024/01/21 05:03:12;;;;;;;3.93;3.03;;;-1.40;99.90;;;;;;5042473;28;20796;-74
2024/01/21 05:05:39;;;;;;;6.77;3.03;;;-1.40;99.90;;;;;;5044683;28;20250;-75
2024/01/21 05:08:06;;;;;;;3.80;2.60;;;-1.30;99.90;;;;;;5035872;28;20325;-74
2024/01/21 05:10:33;;;;;;;4.37;2.80;;;-1.20;99.90;;;;;;5041441;28;20545;-75
2024/01/21 05:13:00;;;;;;;4.97;2.77;;;-1.10;99.90;;;;;;5044362;28;20229;-75
2024/01/21 05:15:28;;;;;;;4.17;2.63;;;-1.00;99.90;;;;;;5042202;28;20234;-75
2024/01/21 05:17:56;;;;;;;3.70;2.53;;;-1.00;99.90;;;;;;5041522;28;20209;-76
2024/01/21 05:20:23;;;;;;;4.17;2.60;;;-0.90;99.90;;;;;;5040885;28;20281;-75
2024/01/21 05:22:50;;;;;;;3.53;2.43;;;-0.80;99.90;;;;;;5045354;28;20283;-76
2024/01/21 05:25:17;;;;;;;4.10;2.40;;;-0.70;99.90;;;;;;5035354;28;20704;-75
2024/01/21 05:27:44;;;;;;;3.80;2.40;;;-0.70;99.90;;;;;;5044576;28;20235;-76
2024/01/21 05:30:12;;;;;;;3.30;2.57;;;-0.60;99.90;;;;;;5045332;28;20699;-76
2024/01/21 05:32:46;;;;;;;4.17;2.57;;;-0.50;99.90;;;;;;5046076;28;20234;-76
2024/01/21 05:35:13;;;;;;;4.43;2.90;;;-0.50;99.90;;;;;;5035404;28;20360;-76
2024/01/21 05:37:39;;;;;;;4.30;2.30;;;-0.40;99.90;;;;;;5041654;28;20231;-76
2024/01/21 05:40:08;;;;;;;3.47;2.33;;;-0.40;99.90;;;;;;5040297;28;20229;-77
2024/01/21 05:42:34;;;;;;;3.63;2.40;;;-0.30;99.90;;;;;;5042100;28;20281;-75
2024/01/21 05:45:01;;;;;;;3.27;2.60;;;-0.30;99.90;;;;;;5042398;28;20223;-74
2024/01/21 05:47:28;;;;;;;3.00;2.27;;;-0.30;99.90;;;;;;5042321;28;20231;-75
2024/01/21 05:49:56;;;;;;;4.03;2.23;;;-0.20;99.90;;;;;;5046278;28;20219;-75
2024/01/21 05:52:22;;;;;;;2.87;2.07;;;-0.20;99.90;;;;;;5041632;28;20440;-76
2024/01/21 05:54:49;;;;;;;2.87;2.00;;;-0.20;99.90;;;;;;5043430;28;20232;-76
2024/01/21 05:57:16;;;;;;;3.30;2.13;;;-0.20;99.90;;;;;;5036268;28;20438;-76
2024/01/21 05:59:43;;;;;;;3.30;2.40;;;-0.10;99.90;;;;;;5037382;28;20250;-76
2024/01/21 06:02:10;;;;;;;3.13;2.10;;;-0.10;99.90;;;;;;5043340;28;20213;-76
2024/01/21 06:04:39;;;;;;;2.27;2.00;;;-0.10;99.90;;;;;;5043168;28;21004;-76
2024/01/21 06:07:07;;;;;;;2.70;2.10;;;-0.10;99.70;;;;;;5040805;28;20247;-76
2024/01/21 06:09:34;;;;;;;4.07;2.03;;;0.00;99.60;;;;;;5045158;28;20710;-76
2024/01/21 06:12:01;;;;;;;3.73;2.20;;;0.00;99.80;;;;;;5038837;28;20777;-76
2024/01/21 06:14:27;;;;;;;3.20;2.13;;;0.00;99.70;;;;;;5043073;28;20252;-76
2024/01/21 06:16:54;;;;;;;2.37;1.57;;;0.10;99.40;;;;;;5045590;28;20231;-76
2024/01/21 06:19:21;;;;;;;2.80;1.70;;;0.10;99.30;;;;;;5045310;28;20993;-76
2024/01/21 06:21:48;;;;;;;2.73;1.87;;;0.10;99.10;;;;;;5043724;28;20364;-75
2024/01/21 06:24:17;;;;;;;2.40;1.70;;;0.10;99.00;;;;;;5045307;28;20212;-75
2024/01/21 06:26:44;;;;;;;3.13;1.90;;;0.10;98.60;;;;;;5038021;28;20898;-75
2024/01/21 06:29:11;;;;;;;2.57;1.80;;;0.10;98.80;;;;;;5041522;28;20227;-77
2024/01/21 06:31:38;;;;;;;2.40;1.80;;;0.10;98.80;;;;;;5043275;28;20224;-76
2024/01/21 06:34:05;;;;;;;2.20;1.67;;;0.10;98.80;;;;;;5030851;28;20227;-75
2024/01/21 06:36:32;;;;;;;2.90;1.97;;;0.20;98.70;;;;;;5040368;28;20243;-75
2024/01/21 06:38:59;;;;;;;2.50;2.20;;;0.20;98.80;;;;;;5035621;28;20738;-76
2024/01/21 06:41:27;;;;;;;2.83;1.80;;;0.20;98.20;;;;;;5040478;28;20748;-75
2024/01/21 06:43:54;;;;;;;2.73;1.93;;;0.20;98.20;;;;;;5032273;28;20311;-75
2024/01/21 06:46:20;;;;;;;2.67;1.77;;;0.20;98.30;;;;;;5027447;28;20619;-75
2024/01/21 06:48:47;;;;;;;1.80;1.47;;;0.20;98.40;;;;;;5036535;28;20693;-74
2024/01/21 06:51:31;;;;;;;2.80;1.80;;;0.20;98.40;;;;;;5037608;28;20314;-75
2024/01/21 06:53:58;;;;;;;3.17;1.70;;;0.30;97.60;;;;;;5042140;28;20311;-76
2024/01/21 06:56:27;;;;;;;1.80;1.47;;;0.30;98.10;;;;;;5037761;28;20239;-75
2024/01/21 06:58:54;;;;;;;2.97;1.90;;;0.30;97.50;;;;;;5037251;28;20231;-76
2024/01/21 07:01:20;;;;;;;2.90;1.70;;;0.30;97.60;;;;;;5024623;28;20257;-77
2024/01/21 07:03:47;;;;;;;2.53;1.70;;;0.30;97.50;;;;;;5028202;28;20224;-75
2024/01/21 07:06:14;;;;;;;2.00;1.53;;;0.30;97.60;;;;;;5037115;28;20239;-76
2024/01/21 07:08:41;;;;;;;3.07;1.97;;;0.40;97.40;;;;;;5036111;28;20227;-76
2024/01/21 07:11:08;;;;;;;3.73;1.87;;;0.40;97.50;;;;;;5036653;28;20314;-75
2024/01/21 07:13:36;;;;;;;2.33;2.00;;;0.40;97.40;;;;;;5037065;28;20232;-75
2024/01/21 07:16:03;;;;;;;3.63;1.80;;;0.50;97.30;;;;;;5042412;28;20720;-74
2024/01/21 07:18:29;;;;;;;2.17;1.50;;;0.40;97.20;;;;;;5047661;28;20231;-74
2024/01/21 07:20:56;;;;;;;2.40;1.50;;;0.40;97.20;;;;;;5039237;28;20220;-74
2024/01/21 07:23:23;;;;;;;3.03;1.80;;;0.40;96.80;;;;;;5036410;28;20224;-75
2024/01/21 07:25:50;;;;;;;3.33;1.87;;;0.50;97.10;;;;;;5039856;28;20238;-75
2024/01/21 07:28:17;;;;;;;2.20;1.60;;;0.50;96.40;;;;;;5033708;28;20301;-75
2024/01/21 07:30:45;;;;;;;3.73;1.87;;;0.50;96.30;;;;;;5033260;28;20232;-75
2024/01/21 07:33:12;;;;;;;2.20;1.80;;;0.50;96.50;;;;;;5043346;28;20710;-75
2024/01/21 07:35:39;;;;;;;3.27;1.90;;;0.50;96.10;;;;;;5043662;28;20724;-77
2024/01/21 07:38:05;;;;;;;2.83;1.90;;;0.50;96.40;;;;;;5039653;28;20743;-76
2024/01/21 07:40:32;;;;;;;2.33;1.80;;;0.50;96.20;;;;;;5041580;28;20679;-76
2024/01/21 07:42:59;;;;;;;2.43;1.73;;;0.50;96.20;;;;;;5042595;28;20228;-79
2024/01/21 07:45:25;;;;;;;3.37;1.93;;;0.50;96.40;;;;;;5040892;28;20266;-77
2024/01/21 07:47:53;;;;;;;3.10;2.00;;;0.50;96.30;;;;;;5033063;28;20679;-75
2024/01/21 07:50:20;;;;;;;3.47;2.30;;;0.50;95.60;;;;;;5042168;28;20307;-75
2024/01/21 07:52:47;;;;;;;3.30;2.80;;;0.50;95.80;;;;;;5042876;28;20342;-76
2024/01/21 07:55:13;;;;;;;3.40;2.73;;;0.50;95.80;;;;;;5038256;28;20351;-75
2024/01/21 07:57:40;;;;;;;2.80;2.20;;;0.60;95.70;;;;;;5041126;28;20215;-76
2024/01/21 08:00:08;;;;;;;3.57;1.90;;;0.60;96.00;;;;;;5042091;28;20622;-75
2024/01/21 08:02:35;;;;;;;2.50;1.90;;;0.60;96.00;;;;;;5042286;28;20230;-74
2024/01/21 08:05:04;;;;;;;2.70;1.80;;;0.60;95.60;;;;;;5034290;28;20613;-74
2024/01/21 08:07:31;;;;;;;3.10;2.10;;;0.60;95.40;;;;;;5037802;28;20394;-75
2024/01/21 08:09:58;;;;;;;2.00;1.77;;;0.70;95.70;;;;;;5034750;28;20346;-74
2024/01/21 08:12:25;;;;;;;3.67;1.87;;;0.70;95.70;;;;;;5038519;28;20592;-75
2024/01/21 08:14:53;;;;;;;2.70;1.80;;;0.70;95.20;;;;;;5034053;28;20331;-75
2024/01/21 08:17:20;;;;;;;3.10;2.20;;;0.70;95.00;;;;;;5029066;28;20225;-75
2024/01/21 08:19:46;;;;;;;3.57;2.20;;;0.80;95.40;;;;;;5031879;28;20286;-74
2024/01/21 08:22:14;;;;;;;2.63;2.10;;;0.80;95.20;;;;;;5036824;28;20226;-75
2024/01/21 08:24:41;;;;;;;3.03;2.30;;;0.90;95.40;;;;;;5036955;28;20269;-74
2024/01/21 08:27:08;;;;;;;3.30;1.90;;;0.80;95.40;;;;;;5036762;28;20234;-75
2024/01/21 08:29:34;;;;;;;3.77;2.00;;;0.90;95.40;;;;;;5030855;28;20240;-75
2024/01/21 08:32:03;;;;;;;3.20;1.90;;;0.90;95.40;;;;;;5034560;28;20225;-74
2024/01/21 08:34:30;;;;;;;3.13;2.00;;;0.90;95.40;;;;;;5037234;28;20236;-74
2024/01/21 08:36:56;;;;;;;4.13;1.83;;;0.90;95.10;;;;;;5030894;28;20233;-75
2024/01/21 08:39:24;;;;;;;2.90;2.20;;;0.90;95.20;;;;;;5036100;28;21312;-74
2024/01/21 08:41:51;;;;;;;2.60;1.90;;;1.00;95.00;;;;;;5034989;28;20534;-75
2024/01/21 08:44:18;;;;;;;3.00;2.23;;;1.00;95.30;;;;;;5040166;28;20480;-75
2024/01/21 08:46:45;;;;;;;2.97;2.33;;;1.00;95.10;;;;;;5039408;28;20655;-76
2024/01/21 08:49:12;;;;;;;2.30;2.10;;;1.00;94.80;;;;;;5046711;28;20338;-76
2024/01/21 08:51:38;;;;;;;2.83;2.17;;;1.10;95.00;;;;;;5047330;28;20228;-76
2024/01/21 08:54:05;;;;;;;3.23;2.10;;;1.10;95.00;;;;;;5046674;28;20243;-76
2024/01/21 08:56:35;;;;;;;2.33;2.00;;;1.10;94.90;;;;;;5043329;28;20236;-75
2024/01/21 08:59:02;;;;;;;4.20;2.13;;;1.20;94.30;;;;;;5045404;28;20237;-76
2024/01/21 09:01:28;;;;;;;4.87;2.20;;;1.20;95.10;;;;;;5036596;28;20239;-76
2024/01/21 09:03:55;;;;;;;3.40;2.07;;;1.20;95.10;;;;;;5025397;28;20255;-75
2024/01/21 09:06:22;;;;;;;6.63;2.00;;;1.30;95.20;;;;;;5045913;28;20314;-76
2024/01/21 09:08:51;;;;;;;3.00;2.20;;;1.30;95.20;;;;;;5047156;28;20231;-76
2024/01/21 09:11:18;;;;;;;3.70;2.10;;;1.30;95.30;;;;;;5046598;28;20360;-75
2024/01/21 09:13:46;;;;;;;2.80;1.93;;;1.40;95.40;;;;;;5038788;28;20317;-75
2024/01/21 09:16:16;;;;;;;3.80;2.37;;;1.50;95.20;;;;;;5046882;28;20237;-75
2024/01/21 09:18:43;;;;;;;6.77;2.30;;;1.50;95.10;;;;;;5045343;28;20235;-75
2024/01/21 09:21:09;;;;;;;5.83;2.83;;;1.50;95.60;;;;;;5046197;28;20245;-75
2024/01/21 09:23:36;;;;;;;2.23;1.83;;;1.60;95.00;;;;;;5044010;28;20238;-75
2024/01/21 09:26:03;;;;;;;2.50;2.13;;;1.60;94.90;;;;;;5046110;28;20580;-75
2024/01/21 09:28:29;;;;;;;2.13;1.87;;;1.60;94.40;;;;;;5046284;28;20254;-76
2024/01/21 09:30:57;;;;;;;3.10;2.40;;;1.60;94.70;;;;;;5044960;28;20331;-75
2024/01/21 09:36:20;;;;;;;2.80;2.00;;;1.70;94.50;;;;;;5028577;28;20349;-82
2024/01/21 09:38:47;;;;;;;3.30;2.40;;;1.70;94.70;;;;;;5039480;28;20231;-80
2024/01/21 09:41:24;;;;;;;3.10;2.20;;;1.70;94.60;;;;;;5053509;28;20295;-82
2024/01/21 09:43:50;;;;;;;3.57;2.43;;;1.80;94.10;;;;;;5056513;28;20246;-81
2024/01/21 09:46:19;;;;;;;3.27;2.30;;;1.80;94.30;;;;;;5037531;28;20225;-81
2024/01/21 09:48:46;;;;;;;2.97;2.10;;;1.80;94.20;;;;;;5056145;28;20220;-80
2024/01/21 09:51:13;;;;;;;3.73;2.30;;;1.80;94.40;;;;;;5054094;28;20239;-81
2024/01/21 09:53:39;;;;;;;3.03;2.00;;;1.90;94.40;;;;;;5057707;28;20293;-79
2024/01/21 09:56:07;;;;;;;3.60;2.53;;;1.90;94.30;;;;;;5038442;28;20608;-80
2024/01/21 09:58:37;;;;;;;4.03;2.90;;;2.00;94.70;;;;;;5054362;28;20230;-79
2024/01/21 10:01:05;;;;;;;3.07;2.47;;;2.00;94.10;;;;;;5052515;28;20311;-82
2024/01/21 10:03:33;;;;;;;3.43;2.73;;;2.10;93.90;;;;;;5033828;28;20232;-81
2024/01/21 10:06:00;;;;;;;4.30;2.60;;;2.10;94.10;;;;;;5046632;28;20322;-81
2024/01/21 10:08:28;;;;;;;4.27;2.37;;;2.20;94.50;;;;;;5029869;28;20507;-83
2024/01/21 10:10:56;;;;;;;2.87;2.00;;;2.30;93.70;;;;;;5047022;28;20216;-82
2024/01/21 10:13:23;;;;;;;3.60;2.20;;;2.30;93.70;;;;;;5038369;28;20308;-84
2024/01/21 10:15:50;;;;;;;3.13;2.17;;;2.40;93.60;;;;;;5029418;28;20604;-83
2024/01/21 10:18:17;;;;;;;2.77;2.00;;;2.40;93.70;;;;;;5044433;28;20224;-81
2024/01/21 10:20:45;;;;;;;4.07;2.00;;;2.40;93.70;;;;;;5048977;28;20217;-82
2024/01/21 10:23:12;;;;;;;3.00;1.87;;;2.50;93.70;;;;;;5024320;28;20761;-83
2024/01/21 10:25:43;;;;;;;3.43;2.10;;;2.50;94.10;;;;;;5050451;28;20452;-81
2024/01/21 10:28:11;;;;;;;3.90;2.13;;;2.50;93.70;;;;;;5026510;28;20227;-80
2024/01/21 10:30:38;;;;;;;3.57;2.30;;;2.60;93.90;;;;;;5049024;28;20279;-82
2024/01/21 10:33:05;;;;;;;3.50;2.20;;;2.60;93.80;;;;;;5028243;28;20728;-80
2024/01/21 10:35:32;;;;;;;2.57;1.87;;;2.60;93.40;;;;;;5049725;28;20220;-81
2024/01/21 10:38:02;;;;;;;4.70;2.27;;;2.60;93.70;;;;;;5030511;28;20741;-82
2024/01/21 10:40:29;;;;;;;3.60;2.00;;;2.60;93.50;;;;;;5048067;28;20236;-83
2024/01/21 10:42:59;;;;;;;4.20;3.07;;;2.60;93.00;;;;;;5051264;28;20558;-84
2024/01/21 10:45:26;;;;;;;2.50;2.00;;;2.60;93.10;;;;;;5046554;28;20236;-82
2024/01/21 10:47:54;;;;;;;3.30;2.43;;;2.70;93.40;;;;;;5048430;28;20260;-81
2024/01/21 10:50:21;;;;;;;2.47;2.13;;;2.70;93.70;;;;;;5048267;28;20313;-82
2024/01/21 10:52:49;;;;;;;4.43;2.63;;;2.70;93.50;;;;;;5048866;28;20238;-82
2024/01/21 10:55:17;;;;;;;3.83;2.60;;;2.70;93.20;;;;;;5045337;28;20472;-83
2024/01/21 10:57:47;;;;;;;3.10;2.43;;;2.80;93.20;;;;;;5047895;28;20224;-81
2024/01/21 11:00:14;;;;;;;3.77;2.40;;;2.80;93.20;;;;;;5032768;28;20222;-83
2024/01/21 11:02:41;;;;;;;3.40;2.60;;;2.80;92.90;;;;;;5050275;28;20229;-82
2024/01/21 11:05:09;;;;;;;3.87;2.30;;;2.90;93.00;;;;;;5046368;28;20243;-82
2024/01/21 11:07:38;;;;;;;4.30;2.10;;;2.90;92.90;;;;;;5047899;28;20850;-83
2024/01/21 11:10:07;;;;;;;11.37;3.07;;;3.00;92.80;;;;;;5043165;28;20223;-82
2024/01/21 11:12:35;;;;;;;3.73;2.53;;;3.00;93.10;;;;;;5052190;28;20223;-80
2024/01/21 11:15:29;;;;;;;7.37;2.40;;;3.10;92.80;;;;;;5049627;28;20221;-83
2024/01/21 11:18:09;;;;;;;4.07;2.83;;;3.10;92.60;;;;;;5050035;28;20331;-82
2024/01/21 11:20:36;;;;;;;5.73;3.20;;;3.20;92.40;;;;;;5047803;28;20221;-81
2024/01/21 11:23:02;;;;;;;6.20;3.47;;;3.30;93.50;;;;;;5047892;28;20213;-83
2024/01/21 11:25:33;;;;;;;4.87;3.63;;;3.40;93.50;;;;;;5046770;28;20232;-83
2024/01/21 11:28:03;;;;;;;5.93;3.50;;;3.40;92.80;;;;;;5045683;28;20695;-84
2024/01/21 11:30:30;;;;;;;4.10;3.17;;;3.50;93.20;;;;;;5047215;28;20671;-83
2024/01/21 11:32:59;;;;;;;4.27;3.03;;;3.50;93.30;;;;;;5048704;28;20225;-80
2024/01/21 11:35:28;;;;;;;4.30;2.50;;;3.50;93.10;;;;;;5036560;28;20229;-82
2024/01/21 11:37:55;;;;;;;4.00;2.60;;;3.60;92.80;;;;;;5048002;28;20312;-81
2024/01/21 11:40:21;;;;;;;3.63;2.47;;;3.60;92.80;;;;;;5047851;28;20641;-80
2024/01/21 11:42:50;;;;;;;2.80;2.30;;;3.60;92.40;;;;;;5048377;28;20721;-82
2024/01/21 11:45:19;;;;;;;6.50;2.63;;;3.70;92.70;;;;;;5044744;28;20222;-81
2024/01/21 11:47:46;;;;;;;3.90;2.97;;;3.70;93.10;;;;;;5052770;28;20228;-82
2024/01/21 11:50:13;;;;;;;4.17;3.03;;;3.70;92.10;;;;;;5047630;28;20294;-83
2024/01/21 11:52:40;;;;;;;4.43;2.80;;;3.70;93.00;;;;;;5048309;28;20783;-81
2024/01/21 11:55:07;;;;;;;4.43;2.57;;;3.80;93.00;;;;;;5049193;28;20218;-83
2024/01/21 11:57:34;;;;;;;3.30;2.60;;;3.80;93.50;;;;;;5049551;28;20294;-80
2024/01/21 12:00:00;;;;;;;4.77;2.70;;;3.80;93.30;;;;;;5048762;28;20226;-84
2024/01/21 12:02:29;;;;;;;3.57;2.53;;;3.80;93.00;;;;;;5048385;28;20248;-81
2024/01/21 12:04:56;;;;;;;4.60;2.80;;;3.80;92.90;;;;;;5048687;28;20222;-81
2024/01/21 12:07:25;;;;;;;3.50;2.73;;;3.80;93.20;;;;;;5047414;28;20236;-85
2024/01/21 12:09:53;;;;;;;2.97;2.27;;;3.80;92.80;;;;;;5048388;28;20220;-85
2024/01/21 12:12:19;;;;;;;3.83;2.60;;;3.80;93.00;;;;;;5050035;28;20477;-82
2024/01/21 12:14:48;;;;;;;5.33;3.00;;;3.90;93.70;;;;;;5034974;28;20406;-82
2024/01/21 12:17:15;;;;;;;4.77;3.10;;;3.90;93.30;;;;;;5030248;28;20691;-83
2024/01/21 12:19:43;;;;;;;3.47;2.90;;;3.90;93.40;;;;;;5053336;28;20624;-82
2024/01/21 12:22:09;;;;;;;4.63;2.80;;;3.90;93.40;;;;;;5032752;28;20326;-80
2024/01/21 12:24:40;;;;;;;3.60;2.77;;;3.90;93.30;;;;;;5051266;28;20234;-83
2024/01/21 12:27:06;;;;;;;5.70;2.90;;;3.90;93.40;;;;;;5050416;28;20225;-82
2024/01/21 12:29:37;;;;;;;4.07;2.80;;;3.90;93.60;;;;;;5036392;28;20612;-82
2024/01/21 12:32:05;;;;;;;4.67;3.27;;;3.80;93.40;;;;;;5039251;28;20214;-79
2024/01/21 12:34:34;;;;;;;4.30;2.83;;;3.90;93.70;;;;;;5054426;28;20244;-83
2024/01/21 12:37:02;;;;;;;5.30;3.10;;;3.90;94.00;;;;;;5040850;28;20234;-85
2024/01/21 12:39:28;;;;;;;4.53;3.00;;;3.90;94.10;;;;;;5037854;28;20259;-80
2024/01/21 12:41:55;;;;;;;3.90;2.83;;;4.00;94.00;;;;;;5052735;28;20695;-80
2024/01/21 12:44:22;;;;;;;7.23;3.50;;;4.00;94.50;;;;;;5052752;28;20235;-79
2024/01/21 12:46:48;;;;;;;6.07;3.30;;;4.00;94.70;;;;;;5055531;28;20249;-83
2024/01/21 12:49:15;;;;;;;5.07;3.40;;;4.10;94.70;;;;;;5051543;28;20220;-80
2024/01/21 12:51:44;;;;;;;5.60;3.70;;;4.10;95.00;;;;;;5050538;28;20745;-81
2024/01/21 12:54:13;;;;;;;4.93;3.07;;;4.20;94.80;;;;;;5054574;28;20226;-80
2024/01/21 12:56:40;;;;;;;3.50;3.00;;;4.20;94.50;;;;;;5052305;28;20235;-80